createdAt,value
2023-05-04T00:00:07.857Z,12.49
2023-05-04T00:01:06.700Z,12.47
2023-05-04T00:02:06.682Z,12.46
2023-05-04T00:03:06.774Z,12.43
2023-05-04T00:04:06.884Z,12.45
2023-05-04T00:05:06.611Z,12.46
2023-05-04T00:06:07.562Z,12.46
2023-05-04T00:07:06.583Z,12.43
2023-05-04T00:08:06.554Z,12.42
2023-05-04T00:09:06.657Z,12.42
2023-05-04T00:10:06.855Z,12.42
2023-05-04T00:11:07.524Z,12.40
2023-05-04T00:12:06.541Z,12.42
2023-05-04T00:13:06.543Z,12.39
2023-05-04T00:14:06.504Z,12.39
2023-05-04T00:15:06.481Z,12.36
2023-05-04T00:16:08.556Z,12.32
2023-05-04T00:17:06.503Z,12.31
2023-05-04T00:18:06.519Z,12.31
2023-05-04T00:19:06.415Z,12.32
2023-05-04T00:20:06.668Z,12.29
2023-05-04T00:21:07.539Z,12.27
2023-05-04T00:22:06.396Z,12.24
2023-05-04T00:23:06.439Z,12.22
2023-05-04T00:24:07.331Z,12.20
2023-05-04T00:25:06.368Z,12.17
2023-05-04T00:26:06.381Z,12.15
2023-05-04T00:27:07.273Z,12.13
2023-05-04T00:28:06.317Z,12.13
2023-05-04T00:29:06.318Z,12.13
2023-05-04T00:30:06.594Z,12.09
2023-05-04T00:31:07.044Z,12.07
2023-05-04T00:32:07.335Z,12.03
2023-05-04T00:33:06.448Z,12.02
2023-05-04T00:34:06.253Z,11.99
2023-05-04T00:35:06.235Z,11.95
2023-05-04T00:36:06.218Z,11.88
2023-05-04T00:37:06.251Z,11.86
2023-05-04T00:38:07.162Z,11.84
2023-05-04T00:39:06.189Z,11.81
2023-05-04T00:40:06.536Z,11.80
2023-05-04T00:41:06.247Z,11.81
2023-05-04T00:42:06.173Z,11.83
2023-05-04T00:43:06.133Z,11.84
2023-05-04T00:44:07.079Z,11.86
2023-05-04T00:45:06.098Z,11.88
2023-05-04T00:46:06.130Z,11.87
2023-05-04T00:47:06.178Z,11.86
2023-05-04T00:48:06.121Z,11.84
2023-05-04T00:49:06.984Z,11.83
2023-05-04T00:50:06.329Z,11.81
2023-05-04T00:51:06.219Z,11.80
2023-05-04T00:52:06.201Z,11.83
2023-05-04T00:53:06.039Z,11.81
2023-05-04T00:54:05.996Z,11.83
2023-05-04T00:55:06.929Z,11.83
2023-05-04T00:56:05.994Z,11.80
2023-05-04T00:57:05.978Z,11.80
2023-05-04T00:58:05.961Z,11.75
2023-05-04T00:59:05.950Z,11.75
2023-05-04T01:00:07.118Z,11.75
2023-05-04T01:01:06.273Z,11.75
2023-05-04T01:02:05.906Z,11.75
2023-05-04T01:03:06.034Z,11.75
2023-05-04T01:04:06.038Z,11.75
2023-05-04T01:05:06.776Z,11.73
2023-05-04T01:06:05.838Z,11.72
2023-05-04T01:07:05.847Z,11.69
2023-05-04T01:08:05.805Z,11.66
2023-05-04T01:09:05.825Z,11.65
2023-05-04T01:10:06.877Z,11.63
2023-05-04T01:11:05.802Z,11.62
2023-05-04T01:12:05.830Z,11.62
2023-05-04T01:13:05.814Z,11.60
2023-05-04T01:14:05.754Z,11.63
2023-05-04T01:15:05.764Z,11.59
2023-05-04T01:16:06.787Z,11.59
2023-05-04T01:17:05.921Z,11.60
2023-05-04T01:18:05.819Z,11.59
2023-05-04T01:19:05.692Z,11.59
2023-05-04T01:20:05.968Z,11.59
2023-05-04T01:21:05.689Z,11.55
2023-05-04T01:22:06.632Z,11.54
2023-05-04T01:23:05.628Z,11.55
2023-05-04T01:24:05.650Z,11.55
2023-05-04T01:25:05.599Z,11.52
2023-05-04T01:26:05.657Z,11.55
2023-05-04T01:27:06.536Z,11.54
2023-05-04T01:28:05.615Z,11.55
2023-05-04T01:29:05.594Z,11.55
2023-05-04T01:30:05.906Z,11.55
2023-05-04T01:31:05.607Z,11.54
2023-05-04T01:32:05.505Z,11.52
2023-05-04T01:33:06.508Z,11.52
2023-05-04T01:34:05.498Z,11.51
2023-05-04T01:35:05.500Z,11.51
2023-05-04T01:36:05.541Z,11.51
2023-05-04T01:37:05.570Z,11.51
2023-05-04T01:38:05.605Z,11.48
2023-05-04T01:39:06.354Z,11.43
2023-05-04T01:40:05.557Z,11.37
2023-05-04T01:41:05.434Z,11.36
2023-05-04T01:42:05.487Z,11.33
2023-05-04T01:43:05.375Z,11.36
2023-05-04T01:44:05.443Z,11.35
2023-05-04T01:45:06.348Z,11.33
2023-05-04T01:46:05.426Z,11.32
2023-05-04T01:47:05.341Z,11.30
2023-05-04T01:48:05.358Z,11.30
2023-05-04T01:49:05.289Z,11.27
2023-05-04T01:50:05.484Z,11.26
2023-05-04T01:51:06.699Z,11.25
2023-05-04T01:52:05.288Z,11.22
2023-05-04T01:53:05.292Z,11.22
2023-05-04T01:54:05.239Z,11.17
2023-05-04T01:55:05.246Z,11.17
2023-05-04T01:56:05.260Z,11.17
2023-05-04T01:57:06.115Z,11.17
2023-05-04T01:58:05.180Z,11.19
2023-05-04T01:59:05.170Z,11.18
2023-05-04T02:00:05.405Z,11.22
2023-05-04T02:01:05.193Z,11.22
2023-05-04T02:02:06.242Z,11.19
2023-05-04T02:03:05.176Z,11.18
2023-05-04T02:04:05.266Z,11.15
2023-05-04T02:05:05.096Z,11.14
2023-05-04T02:06:05.094Z,11.11
2023-05-04T02:07:05.103Z,11.10
2023-05-04T02:08:06.023Z,11.08
2023-05-04T02:09:06.002Z,11.08
2023-05-04T02:10:05.346Z,11.07
2023-05-04T02:11:05.043Z,11.05
2023-05-04T02:12:05.005Z,11.02
2023-05-04T02:13:05.029Z,11.02
2023-05-04T02:14:05.952Z,11.00
2023-05-04T02:15:05.969Z,11.02
2023-05-04T02:16:05.037Z,11.02
2023-05-04T02:17:04.966Z,11.04
2023-05-04T02:18:04.984Z,11.04
2023-05-04T02:19:04.947Z,11.05
2023-05-04T02:20:06.242Z,11.07
2023-05-04T02:21:05.867Z,11.08
2023-05-04T02:22:04.905Z,11.05
2023-05-04T02:23:04.898Z,11.07
2023-05-04T02:24:05.153Z,11.08
2023-05-04T02:25:05.803Z,11.07
2023-05-04T02:26:04.837Z,11.05
2023-05-04T02:27:04.806Z,11.05
2023-05-04T02:29:02.318Z,11.07
2023-05-04T02:30:02.553Z,11.05
2023-05-04T02:31:03.178Z,11.04
2023-05-04T02:32:02.345Z,11.04
2023-05-04T02:33:02.273Z,11.02
2023-05-04T02:34:02.241Z,11.00
2023-05-04T02:35:02.239Z,10.97
2023-05-04T02:36:03.156Z,10.94
2023-05-04T02:37:02.187Z,10.94
2023-05-04T02:38:02.204Z,10.93
2023-05-04T02:39:02.174Z,10.92
2023-05-04T02:40:02.338Z,10.90
2023-05-04T02:41:03.110Z,10.87
2023-05-04T02:42:02.131Z,10.86
2023-05-04T02:43:02.146Z,10.84
2023-05-04T02:44:02.099Z,10.84
2023-05-04T02:45:02.103Z,10.82
2023-05-04T02:46:02.241Z,10.82
2023-05-04T02:47:02.977Z,10.81
2023-05-04T02:48:02.132Z,10.79
2023-05-04T02:49:02.023Z,10.81
2023-05-04T02:50:02.164Z,10.79
2023-05-04T02:51:02.012Z,10.79
2023-05-04T02:52:02.948Z,10.79
2023-05-04T02:53:01.971Z,10.79
2023-05-04T02:54:01.993Z,10.78
2023-05-04T02:55:01.990Z,10.76
2023-05-04T02:56:01.926Z,10.78
2023-05-04T02:57:02.858Z,10.76
2023-05-04T02:58:01.973Z,10.79
2023-05-04T02:59:01.937Z,10.78
2023-05-04T03:00:02.151Z,10.76
2023-05-04T03:01:01.907Z,10.75
2023-05-04T03:02:01.875Z,10.75
2023-05-04T03:03:02.911Z,10.74
2023-05-04T03:04:01.864Z,10.74
2023-05-04T03:05:01.861Z,10.74
2023-05-04T03:06:01.808Z,10.72
2023-05-04T03:07:01.818Z,10.72
2023-05-04T03:08:02.745Z,10.72
2023-05-04T03:09:02.769Z,10.69
2023-05-04T03:10:01.813Z,10.71
2023-05-04T03:11:01.755Z,10.69
2023-05-04T03:12:01.722Z,10.71
2023-05-04T03:13:01.758Z,10.71
2023-05-04T03:14:02.793Z,10.68
2023-05-04T03:15:01.997Z,10.67
2023-05-04T03:16:01.801Z,10.67
2023-05-04T03:17:01.674Z,10.64
2023-05-04T03:18:01.745Z,10.64
2023-05-04T03:19:01.670Z,10.67
2023-05-04T03:20:02.713Z,10.63
2023-05-04T03:21:01.658Z,10.57
2023-05-04T03:22:01.621Z,10.57
2023-05-04T03:23:01.604Z,10.54
2023-05-04T03:24:01.584Z,10.56
2023-05-04T03:25:01.636Z,10.54
2023-05-04T03:26:02.493Z,10.54
2023-05-04T03:27:01.545Z,10.53
2023-05-04T03:28:01.551Z,10.53
2023-05-04T03:29:02.472Z,10.53
2023-05-04T03:30:01.592Z,10.54
2023-05-04T03:31:05.451Z,10.54
2023-05-04T03:32:01.524Z,10.56
2023-05-04T03:33:01.534Z,10.57
2023-05-04T03:34:01.472Z,10.59
2023-05-04T03:35:04.316Z,10.51
2023-05-04T03:36:02.422Z,10.44
2023-05-04T03:37:02.417Z,10.41
2023-05-04T03:38:01.388Z,10.38
2023-05-04T03:39:02.097Z,10.40
2023-05-04T03:40:01.395Z,10.40
2023-05-04T03:41:01.382Z,10.42
2023-05-04T03:42:02.333Z,10.44
2023-05-04T03:43:01.321Z,10.46
2023-05-04T03:44:01.349Z,10.48
2023-05-04T03:45:03.849Z,10.49
2023-05-04T03:46:01.398Z,10.49
2023-05-04T03:47:01.263Z,10.48
2023-05-04T03:48:02.319Z,10.49
2023-05-04T03:49:01.297Z,10.51
2023-05-04T03:50:01.248Z,10.53
2023-05-04T03:51:01.261Z,10.53
2023-05-04T03:52:01.230Z,10.54
2023-05-04T03:53:01.182Z,10.56
2023-05-04T03:54:02.115Z,10.56
2023-05-04T03:55:01.389Z,10.57
2023-05-04T03:56:01.207Z,10.60
2023-05-04T03:57:01.155Z,10.60
2023-05-04T03:58:01.157Z,10.61
2023-05-04T03:59:01.121Z,10.64
2023-05-04T04:00:02.165Z,10.67
2023-05-04T04:01:01.088Z,10.67
2023-05-04T04:02:01.144Z,10.69
2023-05-04T04:03:01.129Z,10.69
2023-05-04T04:04:01.149Z,10.69
2023-05-04T04:05:01.086Z,10.68
2023-05-04T04:06:01.992Z,10.67
2023-05-04T04:07:01.045Z,10.69
2023-05-04T04:08:01.073Z,10.68
2023-05-04T04:09:00.979Z,10.67
2023-05-04T04:10:00.978Z,10.63
2023-05-04T04:11:01.913Z,10.60
2023-05-04T04:12:00.973Z,10.56
2023-05-04T04:13:00.961Z,10.53
2023-05-04T04:14:00.919Z,10.51
2023-05-04T04:15:00.891Z,10.54
2023-05-04T04:16:01.820Z,10.53
2023-05-04T04:17:00.978Z,10.51
2023-05-04T04:18:00.952Z,10.53
2023-05-04T04:19:00.922Z,10.54
2023-05-04T04:20:00.850Z,10.54
2023-05-04T04:21:01.744Z,10.56
2023-05-04T04:22:00.874Z,10.56
2023-05-04T04:23:00.835Z,10.54
2023-05-04T04:24:00.835Z,10.44
2023-05-04T04:25:01.150Z,10.40
2023-05-04T04:26:01.718Z,10.35
2023-05-04T04:27:00.788Z,10.30
2023-05-04T04:28:00.774Z,10.25
2023-05-04T04:29:00.747Z,10.20
2023-05-04T04:30:00.793Z,10.19
2023-05-04T04:31:01.690Z,10.17
2023-05-04T04:32:00.741Z,10.15
2023-05-04T04:33:00.766Z,10.13
2023-05-04T04:34:00.677Z,10.16
2023-05-04T04:35:00.661Z,10.13
2023-05-04T04:36:00.757Z,10.09
2023-05-04T04:37:02.507Z,10.02
2023-05-04T04:38:02.937Z,9.99
2023-05-04T04:39:00.599Z,9.95
2023-05-04T04:40:04.670Z,9.92
2023-05-04T04:41:00.582Z,9.92
2023-05-04T04:42:01.495Z,9.89
2023-05-04T04:43:00.577Z,9.91
2023-05-04T04:44:00.525Z,9.89
2023-05-04T04:45:00.609Z,9.89
2023-05-04T04:46:01.315Z,9.92
2023-05-04T04:47:00.689Z,9.92
2023-05-04T04:48:01.765Z,9.89
2023-05-04T04:49:01.576Z,9.84
2023-05-04T04:50:00.542Z,9.86
2023-05-04T04:51:00.563Z,9.83
2023-05-04T04:52:00.467Z,9.80
2023-05-04T04:53:01.458Z,9.80
2023-05-04T04:54:00.561Z,9.83
2023-05-04T04:55:00.435Z,9.86
2023-05-04T04:56:00.398Z,9.91
2023-05-04T04:57:00.359Z,9.98
2023-05-04T04:58:00.410Z,9.99
2023-05-04T04:59:02.246Z,10.01
2023-05-04T05:00:00.347Z,10.01
2023-05-04T05:01:00.338Z,10.02
2023-05-04T05:02:00.330Z,10.07
2023-05-04T05:03:00.396Z,10.13
2023-05-04T05:04:00.283Z,10.17
2023-05-04T05:05:01.384Z,10.23
2023-05-04T05:06:00.276Z,10.25
2023-05-04T05:07:00.269Z,10.31
2023-05-04T05:08:00.295Z,10.33
2023-05-04T05:09:00.215Z,10.33
2023-05-04T05:10:01.137Z,10.33
2023-05-04T05:11:00.209Z,10.33
2023-05-04T05:12:00.173Z,10.33
2023-05-04T05:13:00.222Z,10.34
2023-05-04T05:14:00.208Z,10.35
2023-05-04T05:15:00.173Z,10.40
2023-05-04T05:16:01.156Z,10.41
2023-05-04T05:17:00.301Z,10.44
2023-05-04T05:18:00.319Z,10.46
2023-05-04T05:19:00.160Z,10.46
2023-05-04T05:20:00.187Z,10.49
2023-05-04T05:21:01.053Z,10.53
2023-05-04T05:22:00.122Z,10.56
2023-05-04T05:23:00.063Z,10.57
2023-05-04T05:24:00.058Z,10.59
2023-05-04T05:25:00.038Z,10.61
2023-05-04T05:26:02.660Z,10.63
2023-05-04T05:27:00.930Z,10.63
2023-05-04T05:28:00.039Z,10.63
2023-05-04T05:28:59.962Z,10.64
2023-05-04T05:29:59.929Z,10.67
2023-05-04T05:31:00.101Z,10.68
2023-05-04T05:32:00.860Z,10.68
2023-05-04T05:32:59.947Z,10.68
2023-05-04T05:33:59.895Z,10.71
2023-05-04T05:34:59.899Z,10.67
2023-05-04T05:35:59.886Z,10.61
2023-05-04T05:36:59.863Z,10.61
2023-05-04T05:38:00.794Z,10.61
2023-05-04T05:38:59.898Z,10.61
2023-05-04T05:39:59.798Z,10.61
2023-05-04T05:40:59.818Z,10.57
2023-05-04T05:41:59.836Z,10.57
2023-05-04T05:43:00.742Z,10.57
2023-05-04T05:43:59.780Z,10.59
2023-05-04T05:44:59.743Z,10.56
2023-05-04T05:46:00.025Z,10.54
2023-05-04T05:46:59.712Z,10.54
2023-05-04T05:48:00.798Z,10.53
2023-05-04T05:49:00.177Z,10.53
2023-05-04T05:49:59.715Z,10.51
2023-05-04T05:50:59.703Z,10.49
2023-05-04T05:51:59.699Z,10.53
2023-05-04T05:53:00.592Z,10.54
2023-05-04T05:53:59.645Z,10.56
2023-05-04T05:55:02.257Z,10.59
2023-05-04T05:55:59.649Z,10.56
2023-05-04T05:56:59.766Z,10.59
2023-05-04T05:57:59.595Z,10.61
2023-05-04T05:59:00.522Z,10.61
2023-05-04T05:59:59.526Z,10.63
2023-05-04T06:00:59.591Z,10.67
2023-05-04T06:01:59.671Z,10.71
2023-05-04T06:02:59.665Z,10.75
2023-05-04T06:04:00.801Z,10.78
2023-05-04T06:04:59.735Z,10.86
2023-05-04T06:05:59.476Z,10.89
2023-05-04T06:06:59.595Z,10.96
2023-05-04T06:07:59.523Z,10.99
2023-05-04T06:09:00.459Z,11.04
2023-05-04T06:09:59.433Z,11.07
2023-05-04T06:10:59.389Z,11.08
2023-05-04T06:11:59.439Z,11.10
2023-05-04T06:12:59.450Z,11.10
2023-05-04T06:14:00.365Z,11.14
2023-05-04T06:14:59.394Z,11.15
2023-05-04T06:15:59.465Z,11.19
2023-05-04T06:16:59.359Z,11.23
2023-05-04T06:17:59.385Z,11.25
2023-05-04T06:18:59.359Z,11.26
2023-05-04T06:20:00.238Z,11.27
2023-05-04T06:20:59.561Z,11.29
2023-05-04T06:21:59.285Z,11.30
2023-05-04T06:22:59.271Z,11.32
2023-05-04T06:23:59.259Z,11.32
2023-05-04T06:25:03.675Z,11.30
2023-05-04T06:26:01.652Z,11.29
2023-05-04T06:26:59.223Z,11.29
2023-05-04T06:27:59.333Z,11.27
2023-05-04T06:28:59.266Z,11.29
2023-05-04T06:29:59.341Z,11.29
2023-05-04T06:31:00.140Z,11.33
2023-05-04T06:31:59.210Z,11.36
2023-05-04T06:32:59.264Z,11.36
2023-05-04T06:33:59.146Z,11.44
2023-05-04T06:34:59.091Z,11.48
2023-05-04T06:35:59.983Z,11.51
2023-05-04T06:36:59.072Z,11.55
2023-05-04T06:37:59.091Z,11.60
2023-05-04T06:38:59.100Z,11.65
2023-05-04T06:39:59.055Z,11.69
2023-05-04T06:41:00.028Z,11.73
2023-05-04T06:41:59.017Z,11.78
2023-05-04T06:42:59.040Z,11.81
2023-05-04T06:43:59.074Z,11.87
2023-05-04T06:44:58.966Z,11.91
2023-05-04T06:46:00.015Z,11.95
2023-05-04T06:46:59.004Z,11.99
2023-05-04T06:47:59.162Z,12.04
2023-05-04T06:48:58.967Z,12.09
2023-05-04T06:49:59.638Z,12.12
2023-05-04T06:51:00.793Z,12.15
2023-05-04T06:51:59.885Z,12.22
2023-05-04T06:52:58.874Z,12.29
2023-05-04T06:53:58.859Z,12.36
2023-05-04T06:54:58.884Z,12.43
2023-05-04T06:55:58.848Z,12.47
2023-05-04T06:56:59.746Z,12.50
2023-05-04T06:57:58.860Z,12.55
2023-05-04T06:58:58.912Z,12.58
2023-05-04T06:59:58.814Z,12.58
2023-05-04T07:00:58.870Z,12.61
2023-05-04T07:01:58.820Z,12.64
2023-05-04T07:02:59.726Z,12.65
2023-05-04T07:03:58.782Z,12.65
2023-05-04T07:04:58.745Z,12.68
2023-05-04T07:05:58.670Z,12.70
2023-05-04T07:06:58.694Z,12.70
2023-05-04T07:07:59.593Z,12.76
2023-05-04T07:08:58.672Z,12.82
2023-05-04T07:09:58.685Z,12.86
2023-05-04T07:10:58.660Z,12.87
2023-05-04T07:11:58.679Z,12.95
2023-05-04T07:12:59.672Z,13.00
2023-05-04T07:13:58.677Z,13.08
2023-05-04T07:14:58.697Z,13.12
2023-05-04T07:15:58.823Z,13.15
2023-05-04T07:16:58.663Z,13.18
2023-05-04T07:17:59.640Z,13.18
2023-05-04T07:18:58.571Z,13.19
2023-05-04T07:19:58.520Z,13.22
2023-05-04T07:21:10.721Z,13.23
2023-05-04T07:21:59.502Z,13.30
2023-05-04T07:22:59.434Z,13.38
2023-05-04T07:23:58.485Z,13.41
2023-05-04T07:24:58.485Z,13.47
2023-05-04T07:25:58.479Z,13.52
2023-05-04T07:26:58.416Z,13.56
2023-05-04T07:28:00.925Z,13.60
2023-05-04T07:28:58.448Z,13.65
2023-05-04T07:29:58.470Z,13.68
2023-05-04T07:30:58.377Z,13.72
2023-05-04T07:31:58.464Z,13.77
2023-05-04T07:32:58.558Z,13.81
2023-05-04T07:33:59.455Z,13.83
2023-05-04T07:34:58.436Z,13.87
2023-05-04T07:35:58.427Z,13.87
2023-05-04T07:36:58.379Z,13.90
2023-05-04T07:37:58.302Z,13.93
2023-05-04T07:38:59.190Z,13.96
2023-05-04T07:39:58.307Z,14.03
2023-05-04T07:40:58.238Z,14.11
2023-05-04T07:41:58.260Z,14.17
2023-05-04T07:42:58.412Z,14.18
2023-05-04T07:43:59.492Z,14.25
2023-05-04T07:44:58.239Z,14.29
2023-05-04T07:45:58.216Z,14.36
2023-05-04T07:46:58.197Z,14.41
2023-05-04T07:47:58.235Z,14.48
2023-05-04T07:48:58.148Z,14.53
2023-05-04T07:49:59.130Z,14.54
2023-05-04T07:50:58.092Z,14.58
2023-05-04T07:51:58.824Z,14.63
2023-05-04T07:52:58.091Z,14.68
2023-05-04T07:53:58.088Z,14.72
2023-05-04T07:54:59.046Z,14.79
2023-05-04T07:55:58.092Z,14.85
2023-05-04T07:56:58.070Z,14.86
2023-05-04T07:57:58.042Z,14.89
2023-05-04T07:58:57.997Z,14.97
2023-05-04T07:59:58.990Z,15.00
2023-05-04T08:00:57.986Z,15.02
2023-05-04T08:01:57.968Z,15.03
2023-05-04T08:02:58.014Z,15.06
2023-05-04T08:03:58.084Z,15.09
2023-05-04T08:04:59.048Z,15.15
2023-05-04T08:05:57.931Z,15.19
2023-05-04T08:06:57.904Z,15.21
2023-05-04T08:07:57.946Z,15.25
2023-05-04T08:08:57.911Z,15.29
2023-05-04T08:09:57.907Z,15.31
2023-05-04T08:11:11.680Z,15.36
2023-05-04T08:11:59.882Z,15.42
2023-05-04T08:12:57.889Z,15.46
2023-05-04T08:13:57.883Z,15.51
2023-05-04T08:14:57.892Z,15.58
2023-05-04T08:15:57.786Z,15.67
2023-05-04T08:16:58.702Z,15.70
2023-05-04T08:17:57.797Z,15.72
2023-05-04T08:18:57.809Z,15.75
2023-05-04T08:19:57.752Z,15.76
2023-05-04T08:20:57.789Z,15.77
2023-05-04T08:21:57.729Z,15.80
2023-05-04T08:22:58.788Z,15.86
2023-05-04T08:23:58.002Z,15.86
2023-05-04T08:24:57.765Z,15.92
2023-05-04T08:25:57.745Z,16.00
2023-05-04T08:27:07.101Z,16.05
2023-05-04T08:28:57.780Z,16.16
2023-05-04T08:29:57.762Z,16.23
2023-05-04T08:30:57.719Z,16.32
2023-05-04T08:31:57.811Z,16.38
2023-05-04T08:32:58.028Z,16.43
2023-05-04T08:33:57.729Z,16.53
2023-05-04T08:35:04.308Z,16.60
2023-05-04T08:35:57.637Z,16.66
2023-05-04T08:36:57.731Z,16.69
2023-05-04T08:37:57.632Z,16.74
2023-05-04T08:38:57.675Z,16.79
2023-05-04T08:39:58.568Z,16.89
2023-05-04T08:40:58.514Z,16.97
2023-05-04T08:41:57.582Z,17.05
2023-05-04T08:42:57.576Z,17.06
2023-05-04T08:43:57.593Z,17.06
2023-05-04T08:44:57.567Z,17.09
2023-05-04T08:45:58.537Z,17.09
2023-05-04T08:46:57.498Z,17.11
2023-05-04T08:47:57.543Z,17.15
2023-05-04T08:48:57.555Z,17.22
2023-05-04T08:49:57.472Z,17.27
2023-05-04T08:50:58.409Z,17.33
2023-05-04T08:51:57.423Z,17.33
2023-05-04T08:52:57.607Z,17.36
2023-05-04T08:53:58.675Z,17.42
2023-05-04T08:54:57.489Z,17.52
2023-05-04T08:55:57.377Z,17.65
2023-05-04T08:56:58.378Z,17.67
2023-05-04T08:57:57.530Z,17.56
2023-05-04T08:58:57.371Z,17.56
2023-05-04T08:59:58.129Z,17.51
2023-05-04T09:00:57.343Z,17.39
2023-05-04T09:01:57.396Z,17.41
2023-05-04T09:02:58.408Z,17.48
2023-05-04T09:03:57.392Z,17.52
2023-05-04T09:04:57.331Z,17.63
2023-05-04T09:05:57.293Z,17.72
2023-05-04T09:06:57.289Z,17.71
2023-05-04T09:07:58.145Z,17.63
2023-05-04T09:08:58.234Z,17.57
2023-05-04T09:09:57.326Z,17.54
2023-05-04T09:10:57.229Z,17.52
2023-05-04T09:11:57.236Z,17.60
2023-05-04T09:12:57.285Z,17.72
2023-05-04T09:13:58.200Z,17.89
2023-05-04T09:14:57.196Z,18.01
2023-05-04T09:15:57.154Z,18.18
2023-05-04T09:16:57.191Z,18.35
2023-05-04T09:17:58.061Z,18.47
2023-05-04T09:18:57.168Z,18.60
2023-05-04T09:19:58.067Z,18.65
2023-05-04T09:20:57.132Z,18.66
2023-05-04T09:21:57.208Z,18.58
2023-05-04T09:22:57.044Z,18.52
2023-05-04T09:23:57.076Z,18.41
2023-05-04T09:24:57.064Z,18.43
2023-05-04T09:25:58.086Z,18.47
2023-05-04T09:26:57.082Z,18.44
2023-05-04T09:27:57.080Z,18.40
2023-05-04T09:28:56.946Z,18.50
2023-05-04T09:29:57.003Z,18.62
2023-05-04T09:30:57.362Z,18.63
2023-05-04T09:31:59.081Z,18.59
2023-05-04T09:32:57.031Z,18.53
2023-05-04T09:33:57.297Z,18.44
2023-05-04T09:34:56.938Z,18.50
2023-05-04T09:35:57.032Z,18.58
2023-05-04T09:36:58.785Z,18.71
2023-05-04T09:37:56.973Z,18.86
2023-05-04T09:38:56.943Z,18.99
2023-05-04T09:39:57.168Z,19.15
2023-05-04T09:40:56.846Z,19.29
2023-05-04T09:41:56.942Z,19.40
2023-05-04T09:42:57.823Z,19.52
2023-05-04T09:43:56.902Z,19.66
2023-05-04T09:44:56.833Z,19.81
2023-05-04T09:45:56.915Z,19.94
2023-05-04T09:46:56.780Z,20.04
2023-05-04T09:47:56.970Z,20.07
2023-05-04T09:48:57.735Z,20.16
2023-05-04T09:49:56.928Z,20.21
2023-05-04T09:50:56.708Z,20.19
2023-05-04T09:51:56.689Z,20.13
2023-05-04T09:52:56.710Z,20.10
2023-05-04T09:53:56.665Z,20.14
2023-05-04T09:54:57.580Z,20.19
2023-05-04T09:55:56.658Z,20.28
2023-05-04T09:56:56.934Z,20.32
2023-05-04T09:57:56.588Z,20.37
2023-05-04T09:58:56.628Z,20.40
2023-05-04T09:59:56.638Z,20.48
2023-05-04T10:00:57.535Z,20.52
2023-05-04T10:01:58.641Z,20.59
2023-05-04T10:02:56.613Z,20.67
2023-05-04T10:03:56.531Z,20.67
2023-05-04T10:04:56.595Z,20.77
2023-05-04T10:05:57.520Z,20.85
2023-05-04T10:06:56.533Z,20.93
2023-05-04T10:07:56.501Z,21.02
2023-05-04T10:08:56.521Z,21.09
2023-05-04T10:09:56.499Z,21.20
2023-05-04T10:10:57.397Z,21.27
2023-05-04T10:11:56.415Z,21.37
2023-05-04T10:12:56.485Z,21.48
2023-05-04T10:13:56.386Z,21.62
2023-05-04T10:14:56.431Z,21.73
2023-05-04T10:15:56.411Z,21.62
2023-05-04T10:16:57.288Z,21.57
2023-05-04T10:17:56.588Z,21.33
2023-05-04T10:18:56.419Z,21.32
2023-05-04T10:19:56.323Z,21.36
2023-05-04T10:20:56.394Z,21.48
2023-05-04T10:21:57.227Z,21.64
2023-05-04T10:22:56.347Z,21.77
2023-05-04T10:23:56.292Z,21.82
2023-05-04T10:24:56.381Z,21.83
2023-05-04T10:25:56.253Z,21.96
2023-05-04T10:26:57.132Z,22.04
2023-05-04T10:27:56.240Z,22.15
2023-05-04T10:28:56.885Z,22.22
2023-05-04T10:29:56.250Z,22.29
2023-05-04T10:30:56.188Z,22.38
2023-05-04T10:31:57.190Z,22.43
2023-05-04T10:32:56.341Z,22.45
2023-05-04T10:33:56.185Z,22.44
2023-05-04T10:34:57.296Z,22.33
2023-05-04T10:35:57.137Z,22.29
2023-05-04T10:36:57.030Z,22.28
2023-05-04T10:37:56.195Z,22.23
2023-05-04T10:38:56.130Z,22.18
2023-05-04T10:39:56.061Z,22.20
2023-05-04T10:40:57.011Z,22.33
2023-05-04T10:41:57.000Z,22.39
2023-05-04T10:42:56.122Z,22.50
2023-05-04T10:43:56.037Z,22.66
2023-05-04T10:44:56.043Z,22.75
2023-05-04T10:45:56.057Z,22.87
2023-05-04T10:46:59.034Z,22.96
2023-05-04T10:47:56.023Z,23.08
2023-05-04T10:48:58.698Z,23.08
2023-05-04T10:49:55.964Z,23.09
2023-05-04T10:50:56.105Z,23.17
2023-05-04T10:51:56.835Z,23.25
2023-05-04T10:52:56.773Z,23.28
2023-05-04T10:53:55.890Z,23.24
2023-05-04T10:54:55.870Z,23.34
2023-05-04T10:55:55.892Z,23.34
2023-05-04T10:56:55.863Z,23.31
2023-05-04T10:57:56.901Z,23.44
2023-05-04T10:58:55.835Z,23.61
2023-05-04T10:59:55.826Z,23.69
2023-05-04T11:00:55.881Z,23.73
2023-05-04T11:01:55.834Z,23.78
2023-05-04T11:02:55.854Z,23.86
2023-05-04T11:03:56.719Z,24.03
2023-05-04T11:04:55.776Z,24.26
2023-05-04T11:05:55.793Z,24.48
2023-05-04T11:06:55.876Z,24.61
2023-05-04T11:07:55.818Z,24.69
2023-05-04T11:08:56.647Z,24.74
2023-05-04T11:09:55.712Z,24.85
2023-05-04T11:10:55.697Z,24.99
2023-05-04T11:11:55.729Z,25.21
2023-05-04T11:12:56.131Z,25.59
2023-05-04T11:13:56.623Z,26.00
2023-05-04T11:15:00.189Z,26.34
2023-05-04T11:15:55.641Z,26.68
2023-05-04T11:16:55.739Z,27.05
2023-05-04T11:17:55.850Z,27.30
2023-05-04T11:18:55.746Z,27.20
2023-05-04T11:19:56.615Z,27.17
2023-05-04T11:20:55.632Z,27.08
2023-05-04T11:21:55.609Z,26.41
2023-05-04T11:22:55.678Z,26.13
2023-05-04T11:23:55.587Z,26.05
2023-05-04T11:24:56.347Z,26.25
2023-05-04T11:25:56.462Z,26.38
2023-05-04T11:26:55.502Z,26.75
2023-05-04T11:27:55.580Z,27.14
2023-05-04T11:28:55.690Z,27.63
2023-05-04T11:29:55.510Z,28.00
2023-05-04T11:30:56.562Z,28.26
2023-05-04T11:31:55.793Z,28.56
2023-05-04T11:32:55.457Z,28.76
2023-05-04T11:33:55.448Z,28.88
2023-05-04T11:34:55.466Z,29.10
2023-05-04T11:35:56.510Z,29.42
2023-05-04T11:36:55.495Z,29.79
2023-05-04T11:37:55.512Z,30.19
2023-05-04T11:38:55.382Z,30.48
2023-05-04T11:39:55.441Z,30.77
2023-05-04T11:40:56.330Z,31.07
2023-05-04T11:41:55.405Z,31.29
2023-05-04T11:42:56.959Z,31.42
2023-05-04T11:43:55.357Z,31.49
2023-05-04T11:44:55.343Z,31.55
2023-05-04T11:45:56.317Z,31.43
2023-05-04T11:46:55.351Z,31.55
2023-05-04T11:47:56.465Z,31.73
2023-05-04T11:48:55.400Z,31.70
2023-05-04T11:49:55.303Z,31.56
2023-05-04T11:50:55.321Z,31.55
2023-05-04T11:51:56.249Z,31.31
2023-05-04T11:52:55.275Z,31.14
2023-05-04T11:53:55.255Z,30.59
2023-05-04T11:54:55.866Z,30.24
2023-05-04T11:55:55.236Z,30.09
2023-05-04T11:56:56.125Z,29.79
2023-05-04T11:57:55.217Z,29.54
2023-05-04T11:58:55.196Z,29.44
2023-05-04T11:59:55.288Z,29.54
2023-05-04T12:00:55.986Z,29.51
2023-05-04T12:01:56.080Z,29.59
2023-05-04T12:02:55.561Z,29.53
2023-05-04T12:03:55.333Z,29.12
2023-05-04T12:04:55.236Z,29.02
2023-05-04T12:05:55.278Z,28.98
2023-05-04T12:06:56.091Z,29.10
2023-05-04T12:07:55.130Z,29.19
2023-05-04T12:08:55.225Z,29.44
2023-05-04T12:09:55.199Z,29.66
2023-05-04T12:10:55.044Z,29.73
2023-05-04T12:11:55.056Z,29.88
2023-05-04T12:12:56.018Z,30.00
2023-05-04T12:13:55.028Z,30.12
2023-05-04T12:14:55.019Z,30.19
2023-05-04T12:15:55.132Z,30.40
2023-05-04T12:16:55.110Z,30.51
2023-05-04T12:17:56.001Z,30.57
2023-05-04T12:18:55.011Z,30.66
2023-05-04T12:19:54.994Z,30.65
2023-05-04T12:20:55.035Z,30.57
2023-05-04T12:21:54.929Z,30.32
2023-05-04T12:22:54.990Z,30.16
2023-05-04T12:23:56.039Z,29.82
2023-05-04T12:24:54.901Z,29.45
2023-05-04T12:25:58.391Z,29.23
2023-05-04T12:26:54.894Z,29.01
2023-05-04T12:27:54.953Z,28.98
2023-05-04T12:28:55.837Z,28.96
2023-05-04T12:29:54.982Z,28.98
2023-05-04T12:30:54.876Z,29.12
2023-05-04T12:31:54.877Z,29.27
2023-05-04T12:32:54.894Z,29.35
2023-05-04T12:33:55.772Z,28.85
2023-05-04T12:34:55.016Z,28.49
2023-05-04T12:35:54.816Z,28.08
2023-05-04T12:36:54.872Z,28.10
2023-05-04T12:37:54.858Z,28.32
2023-05-04T12:38:55.728Z,28.64
2023-05-04T12:39:54.729Z,28.81
2023-05-04T12:40:54.695Z,29.05
2023-05-04T12:41:54.778Z,29.38
2023-05-04T12:42:54.745Z,29.73
2023-05-04T12:43:55.686Z,30.16
2023-05-04T12:44:54.698Z,30.50
2023-05-04T12:45:55.494Z,30.66
2023-05-04T12:46:54.701Z,30.80
2023-05-04T12:47:54.827Z,30.90
2023-05-04T12:48:55.593Z,31.07
2023-05-04T12:49:54.719Z,31.10
2023-05-04T12:50:54.972Z,31.14
2023-05-04T12:51:54.754Z,31.17
2023-05-04T12:52:54.635Z,31.31
2023-05-04T12:53:54.588Z,31.52
2023-05-04T12:54:55.557Z,31.69